DAL981 KLAX-KMSP
Flight info
| Callsign | DAL981 |
|---|---|
| Flight time | 2h 55m |
| Altitude | 37000 |
| Route | ORCKA5 LAS BAWER LARVE EKR BFF SSWAN TORGY4 |
| Aircraft | B739/M-SDE2E3FGHIRWXY/LB1 |
Departure
| Time | 2026-04-26 00:16 |
|---|---|
| Airport | Los Angeles International Airport (KLAX) |
Arrival
| Time | 2026-04-26 03:11 |
|---|---|
| Airport | Minneapolis–Saint Paul International Airport / Wold–Chamberlain Field (KMSP) |
| Time | Latitude | Longitude | Altitude | Speed | Heading |
|---|---|---|---|---|---|
| 2026-04-25 23:53 | 33.94665 | -118.40496 | 120 ft | 0 kts | 98° |
| 2026-04-26 00:00 | 33.94665 | -118.40495 | 120 ft | 0 kts | 98° |
| 2026-04-26 00:00 | 33.94667 | -118.40504 | 120 ft | 0 kts | 98° |
| 2026-04-26 00:01 | 33.94668 | -118.40514 | 120 ft | 0 kts | 98° |
| 2026-04-26 00:01 | 33.94668 | -118.40530 | 120 ft | 2 kts | 76° |
| 2026-04-26 00:01 | 33.94662 | -118.40547 | 120 ft | 2 kts | 55° |
| 2026-04-26 00:01 | 33.94651 | -118.40560 | 120 ft | 2 kts | 32° |
| 2026-04-26 00:02 | 33.94638 | -118.40567 | 120 ft | 2 kts | 10° |
| 2026-04-26 00:02 | 33.94628 | -118.40568 | 120 ft | 0 kts | 355° |
| 2026-04-26 00:02 | 33.94621 | -118.40566 | 120 ft | 0 kts | 353° |
| 2026-04-26 00:04 | 33.94626 | -118.40567 | 120 ft | 1 kts | 353° |
| 2026-04-26 00:04 | 33.94638 | -118.40569 | 120 ft | 2 kts | 353° |
| 2026-04-26 00:04 | 33.94653 | -118.40571 | 120 ft | 2 kts | 353° |
| 2026-04-26 00:04 | 33.94671 | -118.40573 | 120 ft | 2 kts | 353° |
| 2026-04-26 00:05 | 33.94689 | -118.40576 | 120 ft | 2 kts | 354° |
| 2026-04-26 00:05 | 33.94705 | -118.40578 | 120 ft | 0 kts | 353° |
| 2026-04-26 00:05 | 33.94709 | -118.40578 | 120 ft | 1 kts | 353° |
| 2026-04-26 00:06 | 33.94719 | -118.40580 | 120 ft | 0 kts | 353° |
| 2026-04-26 00:07 | 33.94720 | -118.40580 | 120 ft | 0 kts | 353° |
| 2026-04-26 00:07 | 33.94721 | -118.40580 | 120 ft | 0 kts | 353° |
| 2026-04-26 00:08 | 33.94724 | -118.40581 | 120 ft | 1 kts | 353° |
| 2026-04-26 00:08 | 33.94768 | -118.40608 | 120 ft | 16 kts | 302° |
| 2026-04-26 00:08 | 33.94761 | -118.40816 | 122 ft | 34 kts | 263° |
| 2026-04-26 00:08 | 33.94723 | -118.41167 | 123 ft | 45 kts | 257° |
| 2026-04-26 00:09 | 33.94546 | -118.41364 | 120 ft | 39 kts | 175° |
| 2026-04-26 00:09 | 33.94232 | -118.41319 | 120 ft | 51 kts | 173° |
| 2026-04-26 00:09 | 33.93880 | -118.41268 | 125 ft | 40 kts | 173° |
| 2026-04-26 00:09 | 33.93765 | -118.41111 | 126 ft | 28 kts | 83° |
| 2026-04-26 00:10 | 33.93799 | -118.40786 | 126 ft | 49 kts | 83° |
| 2026-04-26 00:10 | 33.93845 | -118.40369 | 120 ft | 50 kts | 81° |
| 2026-04-26 00:10 | 33.93883 | -118.39958 | 116 ft | 49 kts | 83° |
| 2026-04-26 00:10 | 33.93917 | -118.39636 | 110 ft | 22 kts | 83° |
| 2026-04-26 00:11 | 33.93934 | -118.39468 | 109 ft | 19 kts | 83° |
| 2026-04-26 00:11 | 33.93951 | -118.39309 | 107 ft | 19 kts | 83° |
| 2026-04-26 00:11 | 33.93966 | -118.39153 | 106 ft | 18 kts | 83° |
| 2026-04-26 00:11 | 33.93982 | -118.38999 | 103 ft | 20 kts | 83° |
| 2026-04-26 00:12 | 33.94002 | -118.38796 | 104 ft | 28 kts | 83° |
| 2026-04-26 00:12 | 33.94028 | -118.38550 | 103 ft | 27 kts | 83° |
| 2026-04-26 00:12 | 33.94048 | -118.38336 | 100 ft | 24 kts | 83° |
| 2026-04-26 00:12 | 33.94069 | -118.38144 | 100 ft | 19 kts | 83° |
| 2026-04-26 00:13 | 33.94079 | -118.38043 | 100 ft | 4 kts | 97° |
| 2026-04-26 00:13 | 33.94077 | -118.38036 | 100 ft | 0 kts | 124° |
| 2026-04-26 00:13 | 33.94075 | -118.38033 | 100 ft | 2 kts | 126° |
| 2026-04-26 00:14 | 33.94029 | -118.38004 | 100 ft | 11 kts | 175° |
| 2026-04-26 00:14 | 33.93980 | -118.38062 | 100 ft | 10 kts | 266° |
| 2026-04-26 00:14 | 33.93978 | -118.38088 | 100 ft | 0 kts | 263° |
| 2026-04-26 00:15 | 33.93978 | -118.38091 | 100 ft | 1 kts | 263° |
| 2026-04-26 00:15 | 33.93961 | -118.38255 | 100 ft | 55 kts | 262° |
| 2026-04-26 00:15 | 33.93883 | -118.39030 | 104 ft | 128 kts | 263° |
| 2026-04-26 00:16 | 33.93751 | -118.40327 | 199 ft | 179 kts | 263° |
| 2026-04-26 00:16 | 33.93614 | -118.41773 | 1122 ft | 176 kts | 263° |
| 2026-04-26 00:16 | 33.93483 | -118.43277 | 1767 ft | 191 kts | 263° |
| 2026-04-26 00:16 | 33.93343 | -118.44878 | 2441 ft | 195 kts | 264° |
| 2026-04-26 00:17 | 33.93195 | -118.46520 | 3096 ft | 201 kts | 261° |
| 2026-04-26 00:17 | 33.92726 | -118.48178 | 3463 ft | 224 kts | 243° |
| 2026-04-26 00:17 | 33.91968 | -118.49882 | 3972 ft | 241 kts | 243° |
| 2026-04-26 00:17 | 33.91205 | -118.51749 | 4536 ft | 255 kts | 246° |
| 2026-04-26 00:18 | 33.90482 | -118.53710 | 5310 ft | 259 kts | 247° |
| 2026-04-26 00:18 | 33.89776 | -118.55709 | 5789 ft | 265 kts | 246° |
| 2026-04-26 00:18 | 33.88798 | -118.57589 | 6115 ft | 269 kts | 225° |
| 2026-04-26 00:18 | 33.87254 | -118.58818 | 6975 ft | 270 kts | 206° |
| 2026-04-26 00:19 | 33.85488 | -118.59422 | 7942 ft | 269 kts | 186° |
| 2026-04-26 00:19 | 33.83628 | -118.58986 | 8756 ft | 278 kts | 158° |
| 2026-04-26 00:19 | 33.82095 | -118.57588 | 9531 ft | 288 kts | 136° |
| 2026-04-26 00:19 | 33.80987 | -118.55550 | 10276 ft | 299 kts | 117° |
| 2026-04-26 00:20 | 33.80585 | -118.53034 | 10748 ft | 321 kts | 89° |
| 2026-04-26 00:20 | 33.81239 | -118.50406 | 11100 ft | 343 kts | 60° |
| 2026-04-26 00:20 | 33.82893 | -118.48300 | 11466 ft | 358 kts | 33° |
| 2026-04-26 00:20 | 33.85137 | -118.46925 | 11810 ft | 372 kts | 19° |
| 2026-04-26 00:21 | 33.87625 | -118.45899 | 12171 ft | 386 kts | 15° |
| 2026-04-26 00:21 | 33.90282 | -118.44952 | 12586 ft | 399 kts | 15° |
| 2026-04-26 00:21 | 33.92849 | -118.43680 | 13235 ft | 407 kts | 28° |
| 2026-04-26 00:21 | 33.94970 | -118.41540 | 13861 ft | 414 kts | 48° |
| 2026-04-26 00:22 | 33.96701 | -118.38780 | 14461 ft | 420 kts | 57° |
| 2026-04-26 00:22 | 33.98263 | -118.35741 | 15115 ft | 424 kts | 60° |
| 2026-04-26 00:22 | 33.99755 | -118.32709 | 15731 ft | 429 kts | 60° |
| 2026-04-26 00:22 | 34.01312 | -118.29612 | 16302 ft | 435 kts | 60° |
| 2026-04-26 00:23 | 34.02933 | -118.26505 | 16908 ft | 440 kts | 59° |
| 2026-04-26 00:23 | 34.04611 | -118.23393 | 17469 ft | 445 kts | 58° |
| 2026-04-26 00:23 | 34.06332 | -118.20278 | 18062 ft | 449 kts | 58° |
| 2026-04-26 00:23 | 34.08071 | -118.17174 | 18580 ft | 455 kts | 57° |
| 2026-04-26 00:24 | 34.09882 | -118.13966 | 19162 ft | 459 kts | 57° |
| 2026-04-26 00:24 | 34.11676 | -118.10794 | 19627 ft | 465 kts | 57° |
| 2026-04-26 00:24 | 34.13500 | -118.07573 | 20181 ft | 468 kts | 57° |
| 2026-04-26 00:24 | 34.15348 | -118.04305 | 20636 ft | 474 kts | 57° |
| 2026-04-26 00:25 | 34.17213 | -118.01002 | 21169 ft | 477 kts | 57° |
| 2026-04-26 00:25 | 34.19079 | -117.97695 | 21649 ft | 481 kts | 57° |
| 2026-04-26 00:25 | 34.20976 | -117.94325 | 22086 ft | 486 kts | 57° |
| 2026-04-26 00:25 | 34.22894 | -117.90914 | 22533 ft | 491 kts | 57° |
| 2026-04-26 00:26 | 34.24817 | -117.87488 | 22970 ft | 495 kts | 58° |
| 2026-04-26 00:26 | 34.26751 | -117.84036 | 23440 ft | 499 kts | 57° |
| 2026-04-26 00:26 | 34.28704 | -117.80545 | 23851 ft | 503 kts | 58° |
| 2026-04-26 00:26 | 34.30656 | -117.77055 | 24334 ft | 506 kts | 57° |
| 2026-04-26 00:27 | 34.32624 | -117.73533 | 24726 ft | 511 kts | 57° |
| 2026-04-26 00:27 | 34.34626 | -117.69950 | 25178 ft | 514 kts | 57° |
| 2026-04-26 00:27 | 34.36644 | -117.66381 | 25694 ft | 515 kts | 56° |
| 2026-04-26 00:27 | 34.38704 | -117.62855 | 26087 ft | 520 kts | 56° |
| 2026-04-26 00:28 | 34.40852 | -117.59258 | 26492 ft | 524 kts | 55° |
| 2026-04-26 00:28 | 34.42991 | -117.55711 | 26974 ft | 525 kts | 54° |
| 2026-04-26 00:28 | 34.45148 | -117.52144 | 27349 ft | 529 kts | 54° |
| 2026-04-26 00:28 | 34.47323 | -117.48541 | 27633 ft | 535 kts | 54° |
| 2026-04-26 00:29 | 34.49511 | -117.44900 | 28509 ft | 526 kts | 55° |
| 2026-04-26 00:29 | 34.51632 | -117.41361 | 29318 ft | 520 kts | 55° |
| 2026-04-26 00:29 | 34.53768 | -117.37781 | 29556 ft | 526 kts | 55° |
| 2026-04-26 00:29 | 34.55891 | -117.34209 | 30041 ft | 525 kts | 56° |
| 2026-04-26 00:30 | 34.58056 | -117.30559 | 30560 ft | 523 kts | 56° |
| 2026-04-26 00:30 | 34.60195 | -117.26949 | 31066 ft | 521 kts | 55° |
| 2026-04-26 00:30 | 34.62332 | -117.23337 | 31416 ft | 522 kts | 55° |
| 2026-04-26 00:30 | 34.64453 | -117.19746 | 31652 ft | 526 kts | 56° |
| 2026-04-26 00:31 | 34.66601 | -117.16106 | 32029 ft | 526 kts | 56° |
| 2026-04-26 00:31 | 34.68705 | -117.12534 | 32501 ft | 524 kts | 55° |
| 2026-04-26 00:31 | 34.70823 | -117.08939 | 32953 ft | 523 kts | 55° |
| 2026-04-26 00:31 | 34.72951 | -117.05321 | 33376 ft | 521 kts | 56° |
| 2026-04-26 00:32 | 34.75060 | -117.01730 | 33757 ft | 521 kts | 56° |
| 2026-04-26 00:32 | 34.77162 | -116.98151 | 34031 ft | 522 kts | 55° |
| 2026-04-26 00:32 | 34.81421 | -116.90892 | 34443 ft | 527 kts | 55° |
| 2026-04-26 00:33 | 34.83522 | -116.87296 | 34737 ft | 527 kts | 55° |
| 2026-04-26 00:33 | 34.85643 | -116.83668 | 35100 ft | 525 kts | 55° |
| 2026-04-26 00:33 | 34.87746 | -116.80065 | 35477 ft | 523 kts | 55° |
| 2026-04-26 00:33 | 34.89863 | -116.76443 | 35867 ft | 520 kts | 54° |
| 2026-04-26 00:34 | 34.91991 | -116.72936 | 36247 ft | 519 kts | 52° |
| 2026-04-26 00:34 | 34.94287 | -116.69534 | 36549 ft | 519 kts | 47° |
| 2026-04-26 00:34 | 34.96666 | -116.66279 | 36788 ft | 520 kts | 46° |
| 2026-04-26 00:34 | 34.99161 | -116.63007 | 36780 ft | 523 kts | 45° |
| 2026-04-26 00:35 | 35.04122 | -116.56625 | 36772 ft | 517 kts | 45° |
| 2026-04-26 00:35 | 35.09052 | -116.50244 | 36757 ft | 518 kts | 45° |
| 2026-04-26 00:36 | 35.13943 | -116.43832 | 36760 ft | 517 kts | 45° |
| 2026-04-26 00:36 | 35.18833 | -116.37367 | 36752 ft | 519 kts | 45° |
| 2026-04-26 00:37 | 35.23730 | -116.30864 | 36757 ft | 517 kts | 46° |
| 2026-04-26 00:37 | 35.28572 | -116.24419 | 36769 ft | 518 kts | 46° |
| 2026-04-26 00:38 | 35.33433 | -116.17941 | 36758 ft | 519 kts | 46° |
| 2026-04-26 00:38 | 35.38195 | -116.11587 | 36758 ft | 518 kts | 46° |
| 2026-04-26 00:39 | 35.43056 | -116.05078 | 36757 ft | 517 kts | 46° |
| 2026-04-26 00:39 | 35.47760 | -115.98768 | 36770 ft | 518 kts | 46° |
| 2026-04-26 00:40 | 35.52552 | -115.92329 | 36775 ft | 516 kts | 46° |
| 2026-04-26 00:40 | 35.57403 | -115.85795 | 36788 ft | 517 kts | 46° |
| 2026-04-26 00:41 | 35.62223 | -115.79291 | 36783 ft | 516 kts | 46° |
| 2026-04-26 00:41 | 35.67036 | -115.72755 | 36786 ft | 518 kts | 47° |
| 2026-04-26 00:42 | 35.71809 | -115.66188 | 36791 ft | 517 kts | 47° |
| 2026-04-26 00:42 | 35.76524 | -115.59671 | 36799 ft | 517 kts | 47° |
| 2026-04-26 00:43 | 35.81308 | -115.53050 | 36816 ft | 518 kts | 47° |
| 2026-04-26 00:43 | 35.86083 | -115.46446 | 36817 ft | 516 kts | 46° |
| 2026-04-26 00:44 | 35.90847 | -115.39850 | 36810 ft | 517 kts | 47° |
| 2026-04-26 00:44 | 35.95605 | -115.33240 | 36792 ft | 518 kts | 48° |
| 2026-04-26 00:45 | 35.99567 | -115.27731 | 36766 ft | 516 kts | 48° |
| 2026-04-26 00:45 | 36.05130 | -115.19972 | 36752 ft | 519 kts | 47° |
| 2026-04-26 00:46 | 36.09765 | -115.13130 | 36750 ft | 517 kts | 52° |
| 2026-04-26 00:46 | 36.13914 | -115.05922 | 36750 ft | 515 kts | 56° |
| 2026-04-26 00:47 | 36.17921 | -114.98591 | 36725 ft | 517 kts | 56° |
| 2026-04-26 00:47 | 36.21934 | -114.91250 | 36727 ft | 516 kts | 56° |
| 2026-04-26 00:48 | 36.25973 | -114.83930 | 36730 ft | 516 kts | 55° |
| 2026-04-26 00:48 | 36.30035 | -114.76613 | 36744 ft | 516 kts | 55° |
| 2026-04-26 00:49 | 36.34080 | -114.69335 | 36746 ft | 515 kts | 55° |
| 2026-04-26 00:49 | 36.38079 | -114.62135 | 36744 ft | 516 kts | 55° |
| 2026-04-26 00:50 | 36.42124 | -114.54832 | 36742 ft | 514 kts | 54° |
| 2026-04-26 00:50 | 36.46174 | -114.47504 | 36736 ft | 516 kts | 55° |
| 2026-04-26 00:51 | 36.50233 | -114.40144 | 36741 ft | 515 kts | 55° |
| 2026-04-26 00:51 | 36.54249 | -114.32832 | 36738 ft | 514 kts | 56° |
| 2026-04-26 00:52 | 36.58262 | -114.25517 | 36729 ft | 515 kts | 56° |
| 2026-04-26 00:52 | 36.62294 | -114.18166 | 36739 ft | 515 kts | 56° |
| 2026-04-26 00:53 | 36.66321 | -114.10802 | 36752 ft | 516 kts | 56° |
| 2026-04-26 00:53 | 36.70334 | -114.03454 | 36748 ft | 513 kts | 56° |
| 2026-04-26 00:54 | 36.74317 | -113.96135 | 36743 ft | 513 kts | 56° |
| 2026-04-26 00:54 | 36.78307 | -113.88783 | 36766 ft | 514 kts | 55° |
| 2026-04-26 00:55 | 36.82314 | -113.81391 | 36792 ft | 515 kts | 55° |
| 2026-04-26 00:55 | 36.86288 | -113.74040 | 36807 ft | 513 kts | 55° |
| 2026-04-26 00:56 | 36.90266 | -113.66670 | 36816 ft | 513 kts | 55° |
| 2026-04-26 00:56 | 36.94263 | -113.59257 | 36804 ft | 514 kts | 55° |
| 2026-04-26 00:57 | 36.98228 | -113.51877 | 36779 ft | 513 kts | 55° |
| 2026-04-26 00:57 | 37.02210 | -113.44447 | 36785 ft | 513 kts | 55° |
| 2026-04-26 00:58 | 37.06135 | -113.37103 | 36811 ft | 512 kts | 55° |
| 2026-04-26 00:58 | 37.10088 | -113.29699 | 36837 ft | 513 kts | 56° |
| 2026-04-26 00:59 | 37.14045 | -113.22265 | 36848 ft | 513 kts | 56° |
| 2026-04-26 00:59 | 37.17982 | -113.14851 | 36881 ft | 512 kts | 56° |
| 2026-04-26 01:00 | 37.21931 | -113.07401 | 36892 ft | 512 kts | 55° |
| 2026-04-26 01:00 | 37.25863 | -112.99975 | 36901 ft | 512 kts | 56° |
| 2026-04-26 01:01 | 37.29773 | -112.92565 | 36900 ft | 511 kts | 56° |
| 2026-04-26 01:01 | 37.33694 | -112.85123 | 36908 ft | 512 kts | 56° |
| 2026-04-26 01:02 | 37.37612 | -112.77674 | 36916 ft | 511 kts | 56° |
| 2026-04-26 01:02 | 37.41504 | -112.70260 | 36915 ft | 511 kts | 55° |
| 2026-04-26 01:03 | 37.45400 | -112.62817 | 36917 ft | 512 kts | 55° |
| 2026-04-26 01:03 | 37.49307 | -112.55332 | 36922 ft | 511 kts | 56° |
| 2026-04-26 01:04 | 37.53186 | -112.47883 | 36927 ft | 512 kts | 55° |
| 2026-04-26 01:04 | 37.57091 | -112.40371 | 36934 ft | 511 kts | 55° |
| 2026-04-26 01:05 | 37.60973 | -112.32888 | 36939 ft | 511 kts | 56° |
| 2026-04-26 01:05 | 37.64965 | -112.25493 | 36944 ft | 512 kts | 52° |
| 2026-04-26 01:06 | 37.69290 | -112.18412 | 36950 ft | 509 kts | 50° |
| 2026-04-26 01:06 | 37.73711 | -112.11453 | 36962 ft | 511 kts | 49° |
| 2026-04-26 01:07 | 37.78139 | -112.04472 | 36953 ft | 510 kts | 50° |
| 2026-04-26 01:07 | 37.82536 | -111.97461 | 36955 ft | 510 kts | 50° |
| 2026-04-26 01:08 | 37.86845 | -111.90532 | 36963 ft | 509 kts | 50° |
| 2026-04-26 01:08 | 37.91081 | -111.83684 | 36963 ft | 510 kts | 50° |
| 2026-04-26 01:09 | 37.95438 | -111.76617 | 36961 ft | 508 kts | 50° |
| 2026-04-26 01:09 | 37.99785 | -111.69557 | 36944 ft | 508 kts | 50° |
| 2026-04-26 01:10 | 38.04127 | -111.62499 | 36943 ft | 509 kts | 50° |
| 2026-04-26 01:10 | 38.08475 | -111.55415 | 36938 ft | 507 kts | 50° |
| 2026-04-26 01:11 | 38.12781 | -111.48386 | 36940 ft | 508 kts | 50° |
| 2026-04-26 01:11 | 38.17117 | -111.41290 | 36933 ft | 508 kts | 50° |
| 2026-04-26 01:12 | 38.21428 | -111.34220 | 36928 ft | 507 kts | 51° |
| 2026-04-26 01:12 | 38.25713 | -111.27179 | 36913 ft | 508 kts | 50° |
| 2026-04-26 01:13 | 38.30031 | -111.20066 | 36907 ft | 509 kts | 50° |
| 2026-04-26 01:13 | 38.34342 | -111.12945 | 36899 ft | 507 kts | 50° |
| 2026-04-26 01:14 | 38.38644 | -111.05829 | 36882 ft | 508 kts | 50° |
| 2026-04-26 01:14 | 38.42938 | -110.98709 | 36877 ft | 509 kts | 50° |
| 2026-04-26 01:15 | 38.47207 | -110.91605 | 36864 ft | 507 kts | 50° |
| 2026-04-26 01:15 | 38.51503 | -110.84455 | 36864 ft | 507 kts | 50° |
| 2026-04-26 01:16 | 38.55789 | -110.77303 | 36858 ft | 507 kts | 50° |
| 2026-04-26 01:16 | 38.60049 | -110.70171 | 36867 ft | 506 kts | 50° |
| 2026-04-26 01:17 | 38.64206 | -110.63194 | 36875 ft | 507 kts | 50° |
| 2026-04-26 01:17 | 38.68460 | -110.56046 | 36879 ft | 507 kts | 50° |
| 2026-04-26 01:18 | 38.72691 | -110.48923 | 36863 ft | 506 kts | 50° |
| 2026-04-26 01:18 | 38.76958 | -110.41723 | 36850 ft | 506 kts | 50° |
| 2026-04-26 01:19 | 38.81191 | -110.34560 | 36841 ft | 506 kts | 51° |
| 2026-04-26 01:19 | 38.85408 | -110.27416 | 36836 ft | 506 kts | 51° |
| 2026-04-26 01:20 | 38.89649 | -110.20217 | 36833 ft | 506 kts | 51° |
| 2026-04-26 01:20 | 38.93873 | -110.13023 | 36829 ft | 506 kts | 51° |
| 2026-04-26 01:21 | 38.98107 | -110.05791 | 36821 ft | 508 kts | 51° |
| 2026-04-26 01:21 | 39.02237 | -109.98726 | 36822 ft | 507 kts | 51° |
| 2026-04-26 01:22 | 39.06444 | -109.91447 | 36843 ft | 508 kts | 52° |
| 2026-04-26 01:22 | 39.10396 | -109.84003 | 36860 ft | 508 kts | 54° |
| 2026-04-26 01:23 | 39.14274 | -109.76371 | 36885 ft | 507 kts | 54° |
| 2026-04-26 01:23 | 39.18122 | -109.68786 | 36895 ft | 508 kts | 54° |
| 2026-04-26 01:24 | 39.22001 | -109.61198 | 36895 ft | 507 kts | 54° |
| 2026-04-26 01:24 | 39.25804 | -109.53789 | 36892 ft | 507 kts | 54° |
| 2026-04-26 01:25 | 39.29693 | -109.46212 | 36889 ft | 507 kts | 54° |
| 2026-04-26 01:25 | 39.33574 | -109.38645 | 36884 ft | 508 kts | 53° |
| 2026-04-26 01:26 | 39.37449 | -109.31082 | 36878 ft | 506 kts | 54° |
| 2026-04-26 01:26 | 39.41322 | -109.23497 | 36888 ft | 507 kts | 54° |
| 2026-04-26 01:27 | 39.45181 | -109.15919 | 36905 ft | 506 kts | 54° |
| 2026-04-26 01:27 | 39.49046 | -109.08307 | 36909 ft | 506 kts | 54° |
| 2026-04-26 01:28 | 39.52887 | -109.00726 | 36913 ft | 507 kts | 54° |
| 2026-04-26 01:28 | 39.56742 | -108.93111 | 36905 ft | 506 kts | 54° |
| 2026-04-26 01:29 | 39.60594 | -108.85480 | 36895 ft | 509 kts | 54° |
| 2026-04-26 01:29 | 39.64439 | -108.77838 | 36913 ft | 508 kts | 54° |
| 2026-04-26 01:30 | 39.68298 | -108.70150 | 36920 ft | 507 kts | 54° |
| 2026-04-26 01:30 | 39.72132 | -108.62495 | 36933 ft | 509 kts | 54° |
| 2026-04-26 01:31 | 39.75972 | -108.54813 | 36927 ft | 509 kts | 54° |
| 2026-04-26 01:31 | 39.79742 | -108.47250 | 36923 ft | 508 kts | 54° |
| 2026-04-26 01:32 | 39.83570 | -108.39542 | 36926 ft | 507 kts | 54° |
| 2026-04-26 01:32 | 39.87386 | -108.31845 | 36932 ft | 508 kts | 54° |
| 2026-04-26 01:33 | 39.91204 | -108.24128 | 36918 ft | 509 kts | 55° |
| 2026-04-26 01:33 | 39.95034 | -108.16362 | 36922 ft | 508 kts | 55° |
| 2026-04-26 01:34 | 39.98708 | -108.08897 | 36917 ft | 510 kts | 54° |
| 2026-04-26 01:34 | 40.02501 | -108.01174 | 36904 ft | 509 kts | 54° |
| 2026-04-26 01:35 | 40.06327 | -107.93368 | 36905 ft | 510 kts | 54° |
| 2026-04-26 01:35 | 40.10008 | -107.85537 | 36917 ft | 510 kts | 57° |
| 2026-04-26 01:36 | 40.13526 | -107.77483 | 36928 ft | 509 kts | 58° |
| 2026-04-26 01:37 | 40.18671 | -107.65517 | 36948 ft | 510 kts | 58° |
| 2026-04-26 01:37 | 40.22138 | -107.57519 | 36979 ft | 509 kts | 57° |
| 2026-04-26 01:38 | 40.25644 | -107.49462 | 36975 ft | 508 kts | 57° |
| 2026-04-26 01:38 | 40.29133 | -107.41451 | 36991 ft | 508 kts | 57° |
| 2026-04-26 01:39 | 40.32611 | -107.33456 | 36975 ft | 510 kts | 58° |
| 2026-04-26 01:39 | 40.36108 | -107.25399 | 36969 ft | 509 kts | 58° |
| 2026-04-26 01:40 | 40.39608 | -107.17310 | 36977 ft | 510 kts | 58° |
| 2026-04-26 01:40 | 40.43074 | -107.09261 | 36951 ft | 510 kts | 58° |
| 2026-04-26 01:41 | 40.46554 | -107.01148 | 36943 ft | 509 kts | 58° |
| 2026-04-26 01:41 | 40.49986 | -106.93124 | 36939 ft | 507 kts | 57° |
| 2026-04-26 01:42 | 40.53437 | -106.85042 | 36938 ft | 509 kts | 58° |
| 2026-04-26 01:42 | 40.56896 | -106.76924 | 36947 ft | 508 kts | 58° |
| 2026-04-26 01:43 | 40.60336 | -106.68838 | 36989 ft | 509 kts | 58° |
| 2026-04-26 01:43 | 40.63765 | -106.60738 | 37000 ft | 509 kts | 58° |
| 2026-04-26 01:44 | 40.67198 | -106.52610 | 37004 ft | 508 kts | 58° |
| 2026-04-26 01:44 | 40.70627 | -106.44478 | 37003 ft | 509 kts | 57° |
| 2026-04-26 01:45 | 40.74036 | -106.36375 | 36998 ft | 508 kts | 57° |
| 2026-04-26 01:45 | 40.77437 | -106.28273 | 36996 ft | 507 kts | 58° |
| 2026-04-26 01:46 | 40.80838 | -106.20141 | 36988 ft | 509 kts | 58° |
| 2026-04-26 01:46 | 40.84245 | -106.11973 | 36981 ft | 508 kts | 58° |
| 2026-04-26 01:47 | 40.87624 | -106.03853 | 36964 ft | 508 kts | 58° |
| 2026-04-26 01:47 | 40.91009 | -105.95703 | 36972 ft | 507 kts | 58° |
| 2026-04-26 01:48 | 40.94400 | -105.87520 | 36975 ft | 508 kts | 58° |
| 2026-04-26 01:48 | 40.97766 | -105.79366 | 36977 ft | 509 kts | 58° |
| 2026-04-26 01:49 | 41.01152 | -105.71132 | 36974 ft | 509 kts | 58° |
| 2026-04-26 01:49 | 41.04517 | -105.62934 | 36964 ft | 509 kts | 58° |
| 2026-04-26 01:50 | 41.07882 | -105.54721 | 36961 ft | 511 kts | 58° |
| 2026-04-26 01:50 | 41.11253 | -105.46448 | 36958 ft | 510 kts | 58° |
| 2026-04-26 01:51 | 41.14627 | -105.38155 | 36952 ft | 511 kts | 58° |
| 2026-04-26 01:51 | 41.17979 | -105.29900 | 36948 ft | 509 kts | 58° |
| 2026-04-26 01:52 | 41.21332 | -105.21623 | 36941 ft | 512 kts | 59° |
| 2026-04-26 01:52 | 41.24683 | -105.13335 | 36930 ft | 510 kts | 59° |
| 2026-04-26 01:53 | 41.28027 | -105.05029 | 36923 ft | 512 kts | 58° |
| 2026-04-26 01:53 | 41.31359 | -104.96733 | 36932 ft | 511 kts | 58° |
| 2026-04-26 01:54 | 41.34716 | -104.88354 | 36936 ft | 512 kts | 59° |
| 2026-04-26 01:54 | 41.38021 | -104.80065 | 36930 ft | 510 kts | 58° |
| 2026-04-26 01:55 | 41.41342 | -104.71719 | 36927 ft | 511 kts | 58° |
| 2026-04-26 01:55 | 41.44643 | -104.63407 | 36936 ft | 510 kts | 58° |
| 2026-04-26 01:56 | 41.47960 | -104.55034 | 36933 ft | 510 kts | 59° |
| 2026-04-26 01:56 | 41.51249 | -104.46706 | 36938 ft | 509 kts | 58° |
| 2026-04-26 01:57 | 41.54538 | -104.38356 | 36947 ft | 510 kts | 58° |
| 2026-04-26 01:57 | 41.57811 | -104.30022 | 36943 ft | 508 kts | 59° |
| 2026-04-26 01:58 | 41.61028 | -104.21800 | 36947 ft | 509 kts | 59° |
| 2026-04-26 01:58 | 41.64283 | -104.13457 | 36954 ft | 507 kts | 59° |
| 2026-04-26 01:59 | 41.67519 | -104.05138 | 36960 ft | 508 kts | 59° |
| 2026-04-26 01:59 | 41.70768 | -103.96760 | 36960 ft | 507 kts | 59° |
| 2026-04-26 02:00 | 41.73996 | -103.88413 | 36966 ft | 508 kts | 59° |
| 2026-04-26 02:00 | 41.77243 | -103.80001 | 36968 ft | 505 kts | 59° |
| 2026-04-26 02:01 | 41.80459 | -103.71650 | 36972 ft | 508 kts | 59° |
| 2026-04-26 02:01 | 41.83613 | -103.63422 | 36979 ft | 508 kts | 59° |
| 2026-04-26 02:02 | 41.86820 | -103.55031 | 36981 ft | 507 kts | 59° |
| 2026-04-26 02:02 | 41.90011 | -103.46645 | 36989 ft | 507 kts | 60° |
| 2026-04-26 02:03 | 41.93053 | -103.38101 | 36981 ft | 510 kts | 62° |
| 2026-04-26 02:03 | 41.95958 | -103.29503 | 36988 ft | 509 kts | 63° |
| 2026-04-26 02:04 | 41.98871 | -103.20844 | 36999 ft | 510 kts | 63° |
| 2026-04-26 02:04 | 42.01813 | -103.12135 | 36997 ft | 510 kts | 63° |
| 2026-04-26 02:05 | 42.04734 | -103.03522 | 37004 ft | 511 kts | 62° |
| 2026-04-26 02:05 | 42.07693 | -102.94807 | 37003 ft | 511 kts | 63° |
| 2026-04-26 02:06 | 42.10616 | -102.86169 | 37013 ft | 512 kts | 62° |
| 2026-04-26 02:06 | 42.13565 | -102.77425 | 36988 ft | 511 kts | 63° |
| 2026-04-26 02:07 | 42.16490 | -102.68720 | 37018 ft | 512 kts | 63° |
| 2026-04-26 02:07 | 42.19401 | -102.60027 | 37005 ft | 512 kts | 62° |
| 2026-04-26 02:08 | 42.22309 | -102.51331 | 37010 ft | 511 kts | 63° |
| 2026-04-26 02:08 | 42.25220 | -102.42590 | 37011 ft | 511 kts | 63° |
| 2026-04-26 02:09 | 42.28114 | -102.33862 | 37000 ft | 512 kts | 64° |
| 2026-04-26 02:09 | 42.31003 | -102.25114 | 37009 ft | 512 kts | 63° |
| 2026-04-26 02:10 | 42.33909 | -102.16293 | 37005 ft | 514 kts | 63° |
| 2026-04-26 02:10 | 42.36781 | -102.07551 | 37017 ft | 514 kts | 63° |
| 2026-04-26 02:11 | 42.39685 | -101.98689 | 37011 ft | 513 kts | 63° |
| 2026-04-26 02:11 | 42.42554 | -101.89904 | 37013 ft | 512 kts | 63° |
| 2026-04-26 02:12 | 42.45421 | -101.81083 | 37014 ft | 513 kts | 63° |
| 2026-04-26 02:12 | 42.48267 | -101.72308 | 37016 ft | 511 kts | 63° |
| 2026-04-26 02:13 | 42.51113 | -101.63506 | 37017 ft | 512 kts | 63° |
| 2026-04-26 02:13 | 42.53948 | -101.54708 | 37014 ft | 511 kts | 63° |
| 2026-04-26 02:14 | 42.56788 | -101.45873 | 37017 ft | 511 kts | 63° |
| 2026-04-26 02:14 | 42.59601 | -101.37077 | 37012 ft | 510 kts | 63° |
| 2026-04-26 02:15 | 42.62394 | -101.28323 | 37019 ft | 510 kts | 64° |
| 2026-04-26 02:15 | 42.65223 | -101.19432 | 37017 ft | 510 kts | 64° |
| 2026-04-26 02:16 | 42.68006 | -101.10651 | 37024 ft | 508 kts | 64° |
| 2026-04-26 02:16 | 42.70780 | -101.01872 | 37032 ft | 510 kts | 64° |
| 2026-04-26 02:17 | 42.73564 | -100.93033 | 37028 ft | 508 kts | 63° |
| 2026-04-26 02:17 | 42.76331 | -100.84223 | 37028 ft | 510 kts | 63° |
| 2026-04-26 02:18 | 42.79107 | -100.75354 | 37029 ft | 508 kts | 64° |
| 2026-04-26 02:18 | 42.81862 | -100.66518 | 37042 ft | 508 kts | 64° |
| 2026-04-26 02:19 | 42.84607 | -100.57680 | 37059 ft | 509 kts | 63° |
| 2026-04-26 02:19 | 42.87344 | -100.48837 | 37065 ft | 506 kts | 64° |
| 2026-04-26 02:20 | 42.90060 | -100.40031 | 37049 ft | 506 kts | 64° |
| 2026-04-26 02:20 | 42.92770 | -100.31221 | 37040 ft | 507 kts | 65° |
| 2026-04-26 02:21 | 42.95491 | -100.22344 | 37038 ft | 506 kts | 64° |
| 2026-04-26 02:21 | 42.98188 | -100.13516 | 37037 ft | 506 kts | 65° |
| 2026-04-26 02:22 | 43.00885 | -100.04662 | 37046 ft | 505 kts | 65° |
| 2026-04-26 02:22 | 43.03561 | -99.95829 | 37053 ft | 505 kts | 65° |
| 2026-04-26 02:23 | 43.06225 | -99.87009 | 37052 ft | 504 kts | 64° |
| 2026-04-26 02:23 | 43.08899 | -99.78134 | 37045 ft | 505 kts | 64° |
| 2026-04-26 02:24 | 43.11551 | -99.69304 | 37044 ft | 503 kts | 64° |
| 2026-04-26 02:24 | 43.14194 | -99.60484 | 37043 ft | 505 kts | 65° |
| 2026-04-26 02:25 | 43.16839 | -99.51627 | 37046 ft | 503 kts | 65° |
| 2026-04-26 02:25 | 43.19485 | -99.42732 | 37029 ft | 505 kts | 65° |
| 2026-04-26 02:26 | 43.22104 | -99.33901 | 37042 ft | 503 kts | 66° |
| 2026-04-26 02:26 | 43.24727 | -99.25013 | 37048 ft | 503 kts | 66° |
| 2026-04-26 02:27 | 43.27337 | -99.16137 | 37034 ft | 502 kts | 66° |
| 2026-04-26 02:27 | 43.29928 | -99.07301 | 37050 ft | 503 kts | 66° |
| 2026-04-26 02:28 | 43.32528 | -98.98403 | 37045 ft | 502 kts | 66° |
| 2026-04-26 02:28 | 43.35102 | -98.89558 | 37054 ft | 501 kts | 66° |
| 2026-04-26 02:29 | 43.37668 | -98.80720 | 37047 ft | 500 kts | 66° |
| 2026-04-26 02:29 | 43.40246 | -98.71796 | 37053 ft | 501 kts | 66° |
| 2026-04-26 02:30 | 43.42782 | -98.62985 | 37049 ft | 499 kts | 66° |
| 2026-04-26 02:30 | 43.45335 | -98.54092 | 37045 ft | 501 kts | 66° |
| 2026-04-26 02:31 | 43.47879 | -98.45203 | 37055 ft | 499 kts | 66° |
| 2026-04-26 02:31 | 43.50407 | -98.36337 | 37064 ft | 499 kts | 66° |
| 2026-04-26 02:32 | 43.52935 | -98.27425 | 37044 ft | 500 kts | 67° |
| 2026-04-26 02:32 | 43.55454 | -98.18526 | 37047 ft | 499 kts | 67° |
| 2026-04-26 02:33 | 43.57966 | -98.09615 | 37055 ft | 499 kts | 67° |
| 2026-04-26 02:33 | 43.60457 | -98.00748 | 37056 ft | 499 kts | 67° |
| 2026-04-26 02:34 | 43.62946 | -97.91858 | 37051 ft | 498 kts | 67° |
| 2026-04-26 02:34 | 43.65444 | -97.82909 | 37053 ft | 499 kts | 67° |
| 2026-04-26 02:35 | 43.67909 | -97.74040 | 37051 ft | 498 kts | 67° |
| 2026-04-26 02:35 | 43.70379 | -97.65121 | 37041 ft | 497 kts | 67° |
| 2026-04-26 02:36 | 43.72839 | -97.56213 | 37039 ft | 497 kts | 67° |
| 2026-04-26 02:36 | 43.75291 | -97.47305 | 37043 ft | 497 kts | 67° |
| 2026-04-26 02:37 | 43.77738 | -97.38384 | 37048 ft | 498 kts | 67° |
| 2026-04-26 02:37 | 43.80167 | -97.29472 | 37039 ft | 498 kts | 68° |
| 2026-04-26 02:38 | 43.82604 | -97.20498 | 37050 ft | 497 kts | 68° |
| 2026-04-26 02:38 | 43.85007 | -97.11625 | 37056 ft | 497 kts | 68° |
| 2026-04-26 02:39 | 43.87431 | -97.02645 | 37062 ft | 497 kts | 68° |
| 2026-04-26 02:39 | 43.89841 | -96.93692 | 37056 ft | 497 kts | 68° |
| 2026-04-26 02:40 | 43.92237 | -96.84747 | 37053 ft | 497 kts | 68° |
| 2026-04-26 02:40 | 43.94616 | -96.75827 | 37048 ft | 496 kts | 68° |
| 2026-04-26 02:41 | 43.97000 | -96.66863 | 37046 ft | 495 kts | 68° |
| 2026-04-26 02:41 | 43.99378 | -96.57904 | 37045 ft | 496 kts | 68° |
| 2026-04-26 02:42 | 44.01742 | -96.48955 | 37055 ft | 495 kts | 68° |
| 2026-04-26 02:42 | 44.04097 | -96.40012 | 37051 ft | 495 kts | 68° |
| 2026-04-26 02:43 | 44.07626 | -96.26551 | 37056 ft | 495 kts | 69° |
| 2026-04-26 02:43 | 44.09964 | -96.17571 | 37053 ft | 495 kts | 69° |
| 2026-04-26 02:44 | 44.12295 | -96.08601 | 37057 ft | 495 kts | 69° |
| 2026-04-26 02:44 | 44.14621 | -95.99618 | 36990 ft | 492 kts | 69° |
| 2026-04-26 02:45 | 44.15772 | -95.95155 | 36635 ft | 488 kts | 69° |
| 2026-04-26 02:45 | 44.16885 | -95.90767 | 36225 ft | 485 kts | 70° |
| 2026-04-26 02:45 | 44.17934 | -95.86339 | 35994 ft | 481 kts | 72° |
| 2026-04-26 02:45 | 44.18947 | -95.81856 | 35476 ft | 482 kts | 72° |
| 2026-04-26 02:46 | 44.19967 | -95.77434 | 34808 ft | 487 kts | 71° |
| 2026-04-26 02:46 | 44.21357 | -95.73151 | 34408 ft | 480 kts | 57° |
| 2026-04-26 02:46 | 44.23255 | -95.69392 | 34164 ft | 474 kts | 49° |
| 2026-04-26 02:46 | 44.25335 | -95.65855 | 33906 ft | 476 kts | 47° |
| 2026-04-26 02:47 | 44.27412 | -95.62296 | 33650 ft | 478 kts | 49° |
| 2026-04-26 02:47 | 44.29398 | -95.58613 | 33396 ft | 476 kts | 53° |
| 2026-04-26 02:47 | 44.31254 | -95.54812 | 33136 ft | 473 kts | 56° |
| 2026-04-26 02:47 | 44.32983 | -95.50951 | 32881 ft | 470 kts | 58° |
| 2026-04-26 02:48 | 44.34629 | -95.47029 | 32624 ft | 469 kts | 59° |
| 2026-04-26 02:48 | 44.36241 | -95.43024 | 32361 ft | 468 kts | 60° |
| 2026-04-26 02:48 | 44.37782 | -95.39103 | 32101 ft | 465 kts | 61° |
| 2026-04-26 02:48 | 44.39326 | -95.35135 | 31844 ft | 463 kts | 61° |
| 2026-04-26 02:49 | 44.40842 | -95.31219 | 31582 ft | 460 kts | 62° |
| 2026-04-26 02:49 | 44.42366 | -95.27272 | 31318 ft | 459 kts | 62° |
| 2026-04-26 02:49 | 44.43885 | -95.23332 | 31053 ft | 456 kts | 62° |
| 2026-04-26 02:49 | 44.45359 | -95.19498 | 30793 ft | 453 kts | 63° |
| 2026-04-26 02:50 | 44.46776 | -95.15532 | 30524 ft | 451 kts | 68° |
| 2026-04-26 02:50 | 44.47912 | -95.11458 | 30255 ft | 448 kts | 73° |
| 2026-04-26 02:50 | 44.48852 | -95.07327 | 29988 ft | 447 kts | 75° |
| 2026-04-26 02:50 | 44.49720 | -95.03181 | 29693 ft | 441 kts | 76° |
| 2026-04-26 02:51 | 44.50562 | -94.99118 | 29276 ft | 437 kts | 76° |
| 2026-04-26 02:51 | 44.51421 | -94.95051 | 28795 ft | 434 kts | 76° |
| 2026-04-26 02:51 | 44.52289 | -94.91032 | 28306 ft | 431 kts | 75° |
| 2026-04-26 02:51 | 44.53164 | -94.87052 | 27816 ft | 429 kts | 75° |
| 2026-04-26 02:52 | 44.54055 | -94.83059 | 27319 ft | 427 kts | 75° |
| 2026-04-26 02:52 | 44.54934 | -94.79140 | 26832 ft | 424 kts | 75° |
| 2026-04-26 02:52 | 44.55825 | -94.75189 | 26342 ft | 421 kts | 75° |
| 2026-04-26 02:52 | 44.56700 | -94.71339 | 25869 ft | 418 kts | 74° |
| 2026-04-26 02:53 | 44.57581 | -94.67490 | 25383 ft | 416 kts | 75° |
| 2026-04-26 02:53 | 44.58460 | -94.63652 | 24909 ft | 413 kts | 75° |
| 2026-04-26 02:53 | 44.59338 | -94.59816 | 24430 ft | 411 kts | 75° |
| 2026-04-26 02:53 | 44.60201 | -94.56024 | 23957 ft | 408 kts | 75° |
| 2026-04-26 02:54 | 44.61055 | -94.52258 | 23489 ft | 406 kts | 74° |
| 2026-04-26 02:54 | 44.61908 | -94.48507 | 23022 ft | 404 kts | 74° |
| 2026-04-26 02:54 | 44.62752 | -94.44783 | 22548 ft | 402 kts | 74° |
| 2026-04-26 02:54 | 44.63590 | -94.41082 | 22087 ft | 399 kts | 74° |
| 2026-04-26 02:55 | 44.64425 | -94.37380 | 21623 ft | 397 kts | 73° |
| 2026-04-26 02:55 | 44.65253 | -94.33682 | 21160 ft | 395 kts | 74° |
| 2026-04-26 02:55 | 44.66057 | -94.30078 | 20696 ft | 393 kts | 74° |
| 2026-04-26 02:55 | 44.66874 | -94.26415 | 20239 ft | 390 kts | 73° |
| 2026-04-26 02:56 | 44.67677 | -94.22815 | 19780 ft | 387 kts | 73° |
| 2026-04-26 02:56 | 44.68481 | -94.19225 | 19312 ft | 385 kts | 73° |
| 2026-04-26 02:56 | 44.69278 | -94.15679 | 18860 ft | 382 kts | 73° |
| 2026-04-26 02:56 | 44.70074 | -94.12148 | 18402 ft | 379 kts | 72° |
| 2026-04-26 02:57 | 44.70869 | -94.08646 | 17952 ft | 376 kts | 72° |
| 2026-04-26 02:57 | 44.71662 | -94.05174 | 17502 ft | 373 kts | 73° |
| 2026-04-26 02:57 | 44.72448 | -94.01726 | 17050 ft | 371 kts | 73° |
| 2026-04-26 02:57 | 44.73230 | -93.98272 | 16568 ft | 369 kts | 73° |
| 2026-04-26 02:58 | 44.74005 | -93.94827 | 16068 ft | 368 kts | 73° |
| 2026-04-26 02:58 | 44.74766 | -93.91424 | 15627 ft | 365 kts | 73° |
| 2026-04-26 02:58 | 44.75520 | -93.88037 | 15172 ft | 363 kts | 73° |
| 2026-04-26 02:58 | 44.76266 | -93.84694 | 14730 ft | 360 kts | 73° |
| 2026-04-26 02:59 | 44.77016 | -93.81329 | 14292 ft | 358 kts | 73° |
| 2026-04-26 02:59 | 44.77750 | -93.78025 | 13855 ft | 356 kts | 74° |
| 2026-04-26 02:59 | 44.78483 | -93.74712 | 13413 ft | 354 kts | 74° |
| 2026-04-26 02:59 | 44.79205 | -93.71439 | 13069 ft | 349 kts | 75° |
| 2026-04-26 03:00 | 44.79916 | -93.68207 | 12677 ft | 346 kts | 75° |
| 2026-04-26 03:00 | 44.80626 | -93.65012 | 12255 ft | 344 kts | 75° |
| 2026-04-26 03:00 | 44.81333 | -93.61828 | 11851 ft | 341 kts | 75° |
| 2026-04-26 03:00 | 44.82034 | -93.58651 | 11437 ft | 340 kts | 76° |
| 2026-04-26 03:01 | 44.82706 | -93.55588 | 11038 ft | 338 kts | 76° |
| 2026-04-26 03:01 | 44.83393 | -93.52448 | 10627 ft | 336 kts | 76° |
| 2026-04-26 03:01 | 44.84078 | -93.49326 | 10210 ft | 334 kts | 76° |
| 2026-04-26 03:01 | 44.84707 | -93.46220 | 9877 ft | 327 kts | 82° |
| 2026-04-26 03:02 | 44.84958 | -93.43156 | 9702 ft | 309 kts | 97° |
| 2026-04-26 03:02 | 44.84438 | -93.40350 | 9303 ft | 291 kts | 122° |
| 2026-04-26 03:02 | 44.83418 | -93.37967 | 8957 ft | 281 kts | 129° |
| 2026-04-26 03:02 | 44.82340 | -93.35725 | 8622 ft | 275 kts | 129° |
| 2026-04-26 03:03 | 44.81289 | -93.33483 | 8309 ft | 269 kts | 129° |
| 2026-04-26 03:03 | 44.80312 | -93.31298 | 8163 ft | 257 kts | 128° |
| 2026-04-26 03:03 | 44.79417 | -93.29238 | 8101 ft | 242 kts | 128° |
| 2026-04-26 03:03 | 44.78560 | -93.27258 | 8029 ft | 229 kts | 128° |
| 2026-04-26 03:04 | 44.77741 | -93.25375 | 7985 ft | 224 kts | 129° |
| 2026-04-26 03:04 | 44.76910 | -93.23491 | 7988 ft | 228 kts | 129° |
| 2026-04-26 03:04 | 44.76083 | -93.21602 | 7980 ft | 226 kts | 128° |
| 2026-04-26 03:04 | 44.75266 | -93.19727 | 7981 ft | 227 kts | 128° |
| 2026-04-26 03:05 | 44.74447 | -93.17809 | 7980 ft | 228 kts | 127° |
| 2026-04-26 03:05 | 44.73642 | -93.15897 | 7979 ft | 228 kts | 127° |
| 2026-04-26 03:05 | 44.72840 | -93.13986 | 7880 ft | 223 kts | 127° |
| 2026-04-26 03:05 | 44.72046 | -93.12105 | 7539 ft | 225 kts | 127° |
| 2026-04-26 03:06 | 44.71247 | -93.10222 | 7239 ft | 225 kts | 127° |
| 2026-04-26 03:06 | 44.70457 | -93.08310 | 6982 ft | 225 kts | 123° |
| 2026-04-26 03:06 | 44.70030 | -93.06190 | 6683 ft | 236 kts | 95° |
| 2026-04-26 03:06 | 44.70517 | -93.03957 | 6418 ft | 247 kts | 59° |
| 2026-04-26 03:07 | 44.71797 | -93.02332 | 6201 ft | 250 kts | 28° |
| 2026-04-26 03:07 | 44.73423 | -93.01602 | 5964 ft | 249 kts | 10° |
| 2026-04-26 03:07 | 44.75154 | -93.01262 | 5642 ft | 248 kts | 8° |
| 2026-04-26 03:07 | 44.76848 | -93.00986 | 5369 ft | 243 kts | 4° |
| 2026-04-26 03:08 | 44.78505 | -93.01139 | 5042 ft | 241 kts | 342° |
| 2026-04-26 03:08 | 44.79903 | -93.02331 | 4787 ft | 231 kts | 311° |
| 2026-04-26 03:08 | 44.80665 | -93.04179 | 4460 ft | 213 kts | 289° |
| 2026-04-26 03:08 | 44.81253 | -93.06034 | 4095 ft | 204 kts | 298° |
| 2026-04-26 03:09 | 44.81955 | -93.07700 | 3740 ft | 194 kts | 302° |
| 2026-04-26 03:09 | 44.82643 | -93.09306 | 3333 ft | 188 kts | 303° |
| 2026-04-26 03:09 | 44.83308 | -93.10847 | 2933 ft | 183 kts | 304° |
| 2026-04-26 03:09 | 44.83961 | -93.12352 | 2543 ft | 176 kts | 305° |
| 2026-04-26 03:10 | 44.84582 | -93.13781 | 2151 ft | 170 kts | 305° |
| 2026-04-26 03:10 | 44.85185 | -93.15173 | 1753 ft | 165 kts | 306° |
| 2026-04-26 03:10 | 44.85777 | -93.16524 | 1466 ft | 158 kts | 306° |
| 2026-04-26 03:10 | 44.86342 | -93.17822 | 1224 ft | 153 kts | 306° |
| 2026-04-26 03:11 | 44.86892 | -93.19071 | 1034 ft | 147 kts | 305° |
| 2026-04-26 03:11 | 44.87421 | -93.20283 | 835 ft | 144 kts | 304° |
| 2026-04-26 03:11 | 44.87884 | -93.21339 | 822 ft | 96 kts | 301° |
| 2026-04-26 03:11 | 44.88117 | -93.21884 | 826 ft | 32 kts | 302° |
| 2026-04-26 03:12 | 44.88221 | -93.22012 | 828 ft | 13 kts | 12° |
| 2026-04-26 03:12 | 44.88296 | -93.21948 | 827 ft | 12 kts | 37° |
| 2026-04-26 03:12 | 44.88359 | -93.21877 | 828 ft | 10 kts | 41° |
| 2026-04-26 03:12 | 44.88411 | -93.21806 | 827 ft | 10 kts | 46° |
| 2026-04-26 03:13 | 44.88465 | -93.21730 | 826 ft | 11 kts | 45° |
| 2026-04-26 03:13 | 44.88519 | -93.21650 | 825 ft | 10 kts | 55° |
| 2026-04-26 03:13 | 44.88497 | -93.21613 | 825 ft | 6 kts | 178° |
| 2026-04-26 03:13 | 44.88453 | -93.21611 | 825 ft | 5 kts | 176° |
| 2026-04-26 03:14 | 44.88436 | -93.21609 | 825 ft | 0 kts | 176° |